sensor_id;sensor_type;location;lat;lon;timestamp;P1;durP1;ratioP1;P2;durP2;ratioP2
69789;SDS011;57064;52.046;4.800;2023-02-07T00:01:08;100.05;;;13.85;;
69789;SDS011;57064;52.046;4.800;2023-02-07T00:03:36;111.13;;;15.05;;
69789;SDS011;57064;52.046;4.800;2023-02-07T00:06:12;63.83;;;13.82;;
69789;SDS011;57064;52.046;4.800;2023-02-07T00:08:40;27.15;;;8.75;;
69789;SDS011;57064;52.046;4.800;2023-02-07T00:11:09;86.93;;;15.00;;
69789;SDS011;57064;52.046;4.800;2023-02-07T00:13:40;99.70;;;17.98;;
69789;SDS011;57064;52.046;4.800;2023-02-07T00:16:07;58.65;;;10.38;;
69789;SDS011;57064;52.046;4.800;2023-02-07T00:18:33;15.02;;;7.88;;
69789;SDS011;57064;52.046;4.800;2023-02-07T00:21:03;70.13;;;11.50;;
69789;SDS011;57064;52.046;4.800;2023-02-07T00:23:31;101.18;;;14.90;;
69789;SDS011;57064;52.046;4.800;2023-02-07T00:25:58;161.70;;;18.75;;
69789;SDS011;57064;52.046;4.800;2023-02-07T00:28:24;68.63;;;17.27;;
69789;SDS011;57064;52.046;4.800;2023-02-07T00:30:50;32.85;;;12.90;;
69789;SDS011;57064;52.046;4.800;2023-02-07T00:33:25;80.22;;;15.07;;
69789;SDS011;57064;52.046;4.800;2023-02-07T00:35:58;68.95;;;17.85;;
69789;SDS011;57064;52.046;4.800;2023-02-07T00:38:25;120.20;;;18.35;;
69789;SDS011;57064;52.046;4.800;2023-02-07T00:40:52;48.95;;;14.57;;
69789;SDS011;57064;52.046;4.800;2023-02-07T00:43:18;49.60;;;15.90;;
69789;SDS011;57064;52.046;4.800;2023-02-07T00:45:44;74.75;;;14.63;;
69789;SDS011;57064;52.046;4.800;2023-02-07T00:48:11;29.02;;;14.05;;
69789;SDS011;57064;52.046;4.800;2023-02-07T00:50:37;48.30;;;14.13;;
69789;SDS011;57064;52.046;4.800;2023-02-07T00:53:03;83.13;;;16.98;;
69789;SDS011;57064;52.046;4.800;2023-02-07T00:55:29;65.45;;;14.57;;
69789;SDS011;57064;52.046;4.800;2023-02-07T00:57:55;71.93;;;15.70;;
69789;SDS011;57064;52.046;4.800;2023-02-07T01:00:21;76.60;;;16.00;;
69789;SDS011;57064;52.046;4.800;2023-02-07T01:02:47;47.30;;;15.20;;
69789;SDS011;57064;52.046;4.800;2023-02-07T01:05:14;55.25;;;15.50;;
69789;SDS011;57064;52.046;4.800;2023-02-07T01:07:40;87.03;;;16.20;;
69789;SDS011;57064;52.046;4.800;2023-02-07T01:10:06;83.55;;;16.80;;
69789;SDS011;57064;52.046;4.800;2023-02-07T01:12:34;255.90;;;28.77;;
69789;SDS011;57064;52.046;4.800;2023-02-07T01:15:00;135.95;;;21.63;;
69789;SDS011;57064;52.046;4.800;2023-02-07T01:17:26;51.72;;;13.98;;
69789;SDS011;57064;52.046;4.800;2023-02-07T01:19:58;76.35;;;16.60;;
69789;SDS011;57064;52.046;4.800;2023-02-07T01:22:25;26.75;;;10.52;;
69789;SDS011;57064;52.046;4.800;2023-02-07T01:24:52;18.50;;;11.35;;
69789;SDS011;57064;52.046;4.800;2023-02-07T01:27:22;30.80;;;13.75;;
69789;SDS011;57064;52.046;4.800;2023-02-07T01:29:48;28.67;;;12.82;;
69789;SDS011;57064;52.046;4.800;2023-02-07T01:32:15;26.52;;;12.48;;
69789;SDS011;57064;52.046;4.800;2023-02-07T01:34:41;30.85;;;12.35;;
69789;SDS011;57064;52.046;4.800;2023-02-07T01:37:07;29.27;;;13.50;;
69789;SDS011;57064;52.046;4.800;2023-02-07T01:39:33;40.45;;;13.55;;
69789;SDS011;57064;52.046;4.800;2023-02-07T01:42:00;29.98;;;13.30;;
69789;SDS011;57064;52.046;4.800;2023-02-07T01:46:52;17.63;;;10.20;;
69789;SDS011;57064;52.046;4.800;2023-02-07T01:49:21;16.10;;;10.15;;
69789;SDS011;57064;52.046;4.800;2023-02-07T01:51:52;20.65;;;8.60;;
69789;SDS011;57064;52.046;4.800;2023-02-07T01:54:21;18.08;;;9.60;;
69789;SDS011;57064;52.046;4.800;2023-02-07T01:56:53;16.95;;;8.13;;
69789;SDS011;57064;52.046;4.800;2023-02-07T01:59:21;16.20;;;8.07;;
69789;SDS011;57064;52.046;4.800;2023-02-07T02:01:49;18.58;;;9.75;;
69789;SDS011;57064;52.046;4.800;2023-02-07T02:04:16;19.30;;;10.70;;
69789;SDS011;57064;52.046;4.800;2023-02-07T02:06:42;24.85;;;11.07;;
69789;SDS011;57064;52.046;4.800;2023-02-07T02:09:10;14.45;;;7.80;;
69789;SDS011;57064;52.046;4.800;2023-02-07T02:17:36;21.25;;;9.18;;
69789;SDS011;57064;52.046;4.800;2023-02-07T02:28:46;20.65;;;9.52;;
69789;SDS011;57064;52.046;4.800;2023-02-07T02:31:26;31.00;;;10.27;;
69789;SDS011;57064;52.046;4.800;2023-02-07T02:34:11;21.20;;;8.77;;
69789;SDS011;57064;52.046;4.800;2023-02-07T02:40:03;370.10;;;37.55;;
69789;SDS011;57064;52.046;4.800;2023-02-07T02:42:36;220.43;;;25.92;;
69789;SDS011;57064;52.046;4.800;2023-02-07T02:45:24;32.55;;;11.07;;
69789;SDS011;57064;52.046;4.800;2023-02-07T02:48:02;19.50;;;10.45;;
69789;SDS011;57064;52.046;4.800;2023-02-07T02:50:31;26.58;;;11.18;;
69789;SDS011;57064;52.046;4.800;2023-02-07T02:52:59;31.23;;;13.80;;
69789;SDS011;57064;52.046;4.800;2023-02-07T02:58:13;33.33;;;14.57;;
69789;SDS011;57064;52.046;4.800;2023-02-07T03:11:54;34.42;;;15.75;;
69789;SDS011;57064;52.046;4.800;2023-02-07T03:17:18;40.25;;;15.60;;
69789;SDS011;57064;52.046;4.800;2023-02-07T03:19:59;35.67;;;17.73;;
69789;SDS011;57064;52.046;4.800;2023-02-07T03:22:32;50.60;;;16.38;;
69789;SDS011;57064;52.046;4.800;2023-02-07T03:25:00;46.05;;;17.52;;
69789;SDS011;57064;52.046;4.800;2023-02-07T03:27:28;40.38;;;15.40;;
69789;SDS011;57064;52.046;4.800;2023-02-07T03:29:56;36.80;;;17.88;;
69789;SDS011;57064;52.046;4.800;2023-02-07T03:32:28;41.85;;;15.25;;
69789;SDS011;57064;52.046;4.800;2023-02-07T03:35:07;36.55;;;17.30;;
69789;SDS011;57064;52.046;4.800;2023-02-07T03:37:47;39.63;;;17.80;;
69789;SDS011;57064;52.046;4.800;2023-02-07T03:40:19;33.10;;;16.27;;
69789;SDS011;57064;52.046;4.800;2023-02-07T03:42:48;37.85;;;17.10;;
69789;SDS011;57064;52.046;4.800;2023-02-07T03:45:18;50.00;;;16.50;;
69789;SDS011;57064;52.046;4.800;2023-02-07T03:47:45;48.58;;;17.95;;
69789;SDS011;57064;52.046;4.800;2023-02-07T03:50:11;54.22;;;17.50;;
69789;SDS011;57064;52.046;4.800;2023-02-07T03:52:38;70.55;;;18.10;;
69789;SDS011;57064;52.046;4.800;2023-02-07T03:55:04;74.80;;;19.73;;
69789;SDS011;57064;52.046;4.800;2023-02-07T03:57:31;79.97;;;19.83;;
69789;SDS011;57064;52.046;4.800;2023-02-07T03:59:57;53.90;;;17.75;;
69789;SDS011;57064;52.046;4.800;2023-02-07T04:02:23;133.30;;;22.33;;
69789;SDS011;57064;52.046;4.800;2023-02-07T04:04:49;71.63;;;16.80;;
69789;SDS011;57064;52.046;4.800;2023-02-07T04:07:16;40.92;;;14.60;;
69789;SDS011;57064;52.046;4.800;2023-02-07T04:09:42;50.53;;;15.23;;
69789;SDS011;57064;52.046;4.800;2023-02-07T04:12:08;57.60;;;17.10;;
69789;SDS011;57064;52.046;4.800;2023-02-07T04:14:34;52.05;;;16.95;;
69789;SDS011;57064;52.046;4.800;2023-02-07T04:17:00;50.95;;;15.27;;
69789;SDS011;57064;52.046;4.800;2023-02-07T04:19:26;93.40;;;18.73;;
69789;SDS011;57064;52.046;4.800;2023-02-07T04:21:52;69.22;;;18.10;;
69789;SDS011;57064;52.046;4.800;2023-02-07T04:24:18;43.80;;;16.55;;
69789;SDS011;57064;52.046;4.800;2023-02-07T04:26:44;68.15;;;16.33;;
69789;SDS011;57064;52.046;4.800;2023-02-07T04:29:10;72.80;;;17.25;;
69789;SDS011;57064;52.046;4.800;2023-02-07T04:31:36;63.97;;;16.00;;
69789;SDS011;57064;52.046;4.800;2023-02-07T04:34:03;57.58;;;17.33;;
69789;SDS011;57064;52.046;4.800;2023-02-07T04:36:30;46.95;;;17.45;;
69789;SDS011;57064;52.046;4.800;2023-02-07T04:38:56;47.88;;;18.88;;
69789;SDS011;57064;52.046;4.800;2023-02-07T04:41:22;41.42;;;17.25;;
69789;SDS011;57064;52.046;4.800;2023-02-07T04:43:48;47.40;;;18.00;;
69789;SDS011;57064;52.046;4.800;2023-02-07T04:46:14;44.88;;;19.13;;
69789;SDS011;57064;52.046;4.800;2023-02-07T04:48:40;43.95;;;19.77;;
69789;SDS011;57064;52.046;4.800;2023-02-07T04:51:06;47.28;;;17.73;;
69789;SDS011;57064;52.046;4.800;2023-02-07T04:53:32;49.05;;;18.27;;
69789;SDS011;57064;52.046;4.800;2023-02-07T04:55:59;47.75;;;19.25;;
69789;SDS011;57064;52.046;4.800;2023-02-07T04:58:25;46.53;;;17.80;;
69789;SDS011;57064;52.046;4.800;2023-02-07T05:00:52;48.63;;;19.77;;
69789;SDS011;57064;52.046;4.800;2023-02-07T05:03:18;52.33;;;21.27;;
69789;SDS011;57064;52.046;4.800;2023-02-07T05:05:44;52.72;;;20.02;;
69789;SDS011;57064;52.046;4.800;2023-02-07T05:08:11;48.28;;;21.27;;
69789;SDS011;57064;52.046;4.800;2023-02-07T05:10:38;57.38;;;21.25;;
69789;SDS011;57064;52.046;4.800;2023-02-07T05:13:05;63.17;;;21.88;;
69789;SDS011;57064;52.046;4.800;2023-02-07T05:15:31;58.72;;;22.45;;
69789;SDS011;57064;52.046;4.800;2023-02-07T05:17:57;56.53;;;21.95;;
69789;SDS011;57064;52.046;4.800;2023-02-07T05:20:24;59.53;;;21.10;;
69789;SDS011;57064;52.046;4.800;2023-02-07T05:22:50;59.72;;;23.45;;
69789;SDS011;57064;52.046;4.800;2023-02-07T05:25:16;63.20;;;22.85;;
69789;SDS011;57064;52.046;4.800;2023-02-07T05:27:43;45.45;;;21.63;;
69789;SDS011;57064;52.046;4.800;2023-02-07T05:30:09;55.08;;;21.52;;
69789;SDS011;57064;52.046;4.800;2023-02-07T05:32:36;49.45;;;20.63;;
69789;SDS011;57064;52.046;4.800;2023-02-07T05:35:21;61.47;;;22.05;;
69789;SDS011;57064;52.046;4.800;2023-02-07T05:37:47;62.25;;;23.80;;
69789;SDS011;57064;52.046;4.800;2023-02-07T05:40:13;58.83;;;20.75;;
69789;SDS011;57064;52.046;4.800;2023-02-07T05:42:39;53.78;;;22.45;;
69789;SDS011;57064;52.046;4.800;2023-02-07T05:45:06;57.88;;;22.27;;
69789;SDS011;57064;52.046;4.800;2023-02-07T05:47:33;57.17;;;23.63;;
69789;SDS011;57064;52.046;4.800;2023-02-07T05:49:59;60.60;;;24.05;;
69789;SDS011;57064;52.046;4.800;2023-02-07T05:52:25;65.97;;;23.67;;
69789;SDS011;57064;52.046;4.800;2023-02-07T05:54:51;67.68;;;24.30;;
69789;SDS011;57064;52.046;4.800;2023-02-07T05:57:19;72.43;;;24.70;;
69789;SDS011;57064;52.046;4.800;2023-02-07T05:59:45;58.85;;;22.02;;
69789;SDS011;57064;52.046;4.800;2023-02-07T06:02:11;62.25;;;23.08;;
69789;SDS011;57064;52.046;4.800;2023-02-07T06:04:37;63.60;;;24.13;;
69789;SDS011;57064;52.046;4.800;2023-02-07T06:07:03;77.95;;;24.63;;
69789;SDS011;57064;52.046;4.800;2023-02-07T06:09:29;56.35;;;21.05;;
69789;SDS011;57064;52.046;4.800;2023-02-07T06:11:55;58.40;;;21.65;;
69789;SDS011;57064;52.046;4.800;2023-02-07T06:14:21;58.65;;;21.55;;
69789;SDS011;57064;52.046;4.800;2023-02-07T06:16:48;65.13;;;22.58;;
69789;SDS011;57064;52.046;4.800;2023-02-07T06:19:14;70.47;;;25.58;;
69789;SDS011;57064;52.046;4.800;2023-02-07T06:21:40;67.45;;;23.77;;
69789;SDS011;57064;52.046;4.800;2023-02-07T06:24:06;67.45;;;24.75;;
69789;SDS011;57064;52.046;4.800;2023-02-07T06:26:33;70.45;;;26.13;;
69789;SDS011;57064;52.046;4.800;2023-02-07T06:28:59;74.07;;;26.20;;
69789;SDS011;57064;52.046;4.800;2023-02-07T06:31:25;62.55;;;22.70;;
69789;SDS011;57064;52.046;4.800;2023-02-07T06:33:51;67.63;;;25.48;;
69789;SDS011;57064;52.046;4.800;2023-02-07T06:36:17;77.03;;;25.55;;
69789;SDS011;57064;52.046;4.800;2023-02-07T06:38:43;79.28;;;26.38;;
69789;SDS011;57064;52.046;4.800;2023-02-07T06:41:09;65.32;;;24.05;;
69789;SDS011;57064;52.046;4.800;2023-02-07T06:43:36;82.30;;;26.27;;
69789;SDS011;57064;52.046;4.800;2023-02-07T06:46:02;70.53;;;25.45;;
69789;SDS011;57064;52.046;4.800;2023-02-07T06:48:28;77.88;;;24.73;;
69789;SDS011;57064;52.046;4.800;2023-02-07T06:50:55;70.88;;;26.25;;
69789;SDS011;57064;52.046;4.800;2023-02-07T06:53:21;72.15;;;26.52;;
69789;SDS011;57064;52.046;4.800;2023-02-07T06:55:47;65.63;;;25.85;;
69789;SDS011;57064;52.046;4.800;2023-02-07T06:58:14;70.80;;;26.42;;
69789;SDS011;57064;52.046;4.800;2023-02-07T07:00:40;71.80;;;26.67;;
69789;SDS011;57064;52.046;4.800;2023-02-07T07:03:09;70.38;;;24.60;;
69789;SDS011;57064;52.046;4.800;2023-02-07T07:05:41;77.40;;;27.67;;
69789;SDS011;57064;52.046;4.800;2023-02-07T07:08:08;75.10;;;25.45;;
69789;SDS011;57064;52.046;4.800;2023-02-07T07:10:35;81.55;;;27.73;;
69789;SDS011;57064;52.046;4.800;2023-02-07T07:13:02;76.43;;;26.73;;
69789;SDS011;57064;52.046;4.800;2023-02-07T07:15:28;88.85;;;28.38;;
69789;SDS011;57064;52.046;4.800;2023-02-07T07:17:54;78.50;;;27.02;;
69789;SDS011;57064;52.046;4.800;2023-02-07T07:20:21;72.07;;;26.75;;
69789;SDS011;57064;52.046;4.800;2023-02-07T07:22:47;71.82;;;27.27;;
69789;SDS011;57064;52.046;4.800;2023-02-07T07:25:13;73.97;;;27.65;;
69789;SDS011;57064;52.046;4.800;2023-02-07T07:27:39;74.72;;;30.13;;
69789;SDS011;57064;52.046;4.800;2023-02-07T07:30:06;84.28;;;31.65;;
69789;SDS011;57064;52.046;4.800;2023-02-07T07:32:33;82.35;;;29.20;;
69789;SDS011;57064;52.046;4.800;2023-02-07T07:34:59;90.40;;;30.92;;
69789;SDS011;57064;52.046;4.800;2023-02-07T07:37:26;102.72;;;30.13;;
69789;SDS011;57064;52.046;4.800;2023-02-07T07:39:52;80.65;;;29.15;;
69789;SDS011;57064;52.046;4.800;2023-02-07T07:42:18;89.63;;;30.58;;
69789;SDS011;57064;52.046;4.800;2023-02-07T07:44:44;88.65;;;29.65;;
69789;SDS011;57064;52.046;4.800;2023-02-07T07:47:10;89.78;;;27.95;;
69789;SDS011;57064;52.046;4.800;2023-02-07T07:49:37;85.13;;;27.83;;
69789;SDS011;57064;52.046;4.800;2023-02-07T07:52:04;81.18;;;26.50;;
69789;SDS011;57064;52.046;4.800;2023-02-07T07:54:30;90.65;;;28.42;;
69789;SDS011;57064;52.046;4.800;2023-02-07T07:56:56;96.72;;;30.13;;
69789;SDS011;57064;52.046;4.800;2023-02-07T07:59:22;100.55;;;27.23;;
69789;SDS011;57064;52.046;4.800;2023-02-07T08:01:48;96.25;;;28.23;;
69789;SDS011;57064;52.046;4.800;2023-02-07T08:04:14;90.50;;;27.85;;
69789;SDS011;57064;52.046;4.800;2023-02-07T08:06:41;85.57;;;27.42;;
69789;SDS011;57064;52.046;4.800;2023-02-07T08:09:07;107.25;;;26.92;;
69789;SDS011;57064;52.046;4.800;2023-02-07T08:11:33;107.95;;;29.52;;
69789;SDS011;57064;52.046;4.800;2023-02-07T08:13:59;87.43;;;26.13;;
69789;SDS011;57064;52.046;4.800;2023-02-07T08:16:25;92.75;;;27.33;;
69789;SDS011;57064;52.046;4.800;2023-02-07T08:18:51;106.78;;;27.92;;
69789;SDS011;57064;52.046;4.800;2023-02-07T08:21:17;129.43;;;31.98;;
69789;SDS011;57064;52.046;4.800;2023-02-07T08:23:45;155.05;;;33.33;;
69789;SDS011;57064;52.046;4.800;2023-02-07T08:26:12;146.50;;;29.73;;
69789;SDS011;57064;52.046;4.800;2023-02-07T08:28:38;125.95;;;28.70;;
69789;SDS011;57064;52.046;4.800;2023-02-07T08:31:04;106.15;;;27.67;;
69789;SDS011;57064;52.046;4.800;2023-02-07T08:33:31;94.65;;;27.02;;
69789;SDS011;57064;52.046;4.800;2023-02-07T08:35:57;99.72;;;26.48;;
69789;SDS011;57064;52.046;4.800;2023-02-07T08:38:24;91.07;;;27.00;;
69789;SDS011;57064;52.046;4.800;2023-02-07T08:40:50;98.53;;;28.17;;
69789;SDS011;57064;52.046;4.800;2023-02-07T08:43:17;77.75;;;26.27;;
69789;SDS011;57064;52.046;4.800;2023-02-07T08:45:47;74.63;;;25.77;;
69789;SDS011;57064;52.046;4.800;2023-02-07T08:48:13;132.73;;;30.92;;
69789;SDS011;57064;52.046;4.800;2023-02-07T08:50:40;102.18;;;27.63;;
69789;SDS011;57064;52.046;4.800;2023-02-07T08:53:06;83.03;;;28.02;;
69789;SDS011;57064;52.046;4.800;2023-02-07T08:55:32;88.88;;;26.73;;
69789;SDS011;57064;52.046;4.800;2023-02-07T08:57:58;130.65;;;30.83;;
69789;SDS011;57064;52.046;4.800;2023-02-07T09:00:24;159.00;;;32.30;;
69789;SDS011;57064;52.046;4.800;2023-02-07T09:02:50;144.75;;;33.42;;
69789;SDS011;57064;52.046;4.800;2023-02-07T09:05:17;132.45;;;32.97;;
69789;SDS011;57064;52.046;4.800;2023-02-07T09:07:43;163.20;;;33.60;;
69789;SDS011;57064;52.046;4.800;2023-02-07T09:10:09;106.43;;;28.58;;
69789;SDS011;57064;52.046;4.800;2023-02-07T09:12:35;120.13;;;29.05;;
69789;SDS011;57064;52.046;4.800;2023-02-07T09:15:02;94.78;;;26.83;;
69789;SDS011;57064;52.046;4.800;2023-02-07T09:17:29;109.07;;;28.30;;
69789;SDS011;57064;52.046;4.800;2023-02-07T09:19:56;100.00;;;28.83;;
69789;SDS011;57064;52.046;4.800;2023-02-07T09:22:22;111.47;;;26.38;;
69789;SDS011;57064;52.046;4.800;2023-02-07T09:24:48;100.05;;;28.05;;
69789;SDS011;57064;52.046;4.800;2023-02-07T09:27:14;75.88;;;25.50;;
69789;SDS011;57064;52.046;4.800;2023-02-07T09:29:40;117.93;;;28.10;;
69789;SDS011;57064;52.046;4.800;2023-02-07T09:32:08;133.73;;;34.65;;
69789;SDS011;57064;52.046;4.800;2023-02-07T09:34:34;82.03;;;26.17;;
69789;SDS011;57064;52.046;4.800;2023-02-07T09:37:00;80.50;;;24.45;;
69789;SDS011;57064;52.046;4.800;2023-02-07T09:39:26;76.95;;;24.65;;
69789;SDS011;57064;52.046;4.800;2023-02-07T09:42:03;96.60;;;26.00;;
69789;SDS011;57064;52.046;4.800;2023-02-07T09:44:48;124.88;;;29.02;;
69789;SDS011;57064;52.046;4.800;2023-02-07T09:47:19;99.65;;;28.83;;
69789;SDS011;57064;52.046;4.800;2023-02-07T09:49:57;84.45;;;23.98;;
69789;SDS011;57064;52.046;4.800;2023-02-07T09:52:32;66.93;;;23.38;;
69789;SDS011;57064;52.046;4.800;2023-02-07T09:55:17;62.53;;;22.65;;
69789;SDS011;57064;52.046;4.800;2023-02-07T09:57:47;57.45;;;21.48;;
69789;SDS011;57064;52.046;4.800;2023-02-07T10:00:36;65.30;;;23.10;;
69789;SDS011;57064;52.046;4.800;2023-02-07T10:03:16;58.97;;;22.48;;
69789;SDS011;57064;52.046;4.800;2023-02-07T10:05:51;77.15;;;25.38;;
69789;SDS011;57064;52.046;4.800;2023-02-07T10:08:22;63.25;;;22.88;;
69789;SDS011;57064;52.046;4.800;2023-02-07T10:10:51;61.95;;;23.27;;
69789;SDS011;57064;52.046;4.800;2023-02-07T10:31:01;91.30;;;24.83;;
69789;SDS011;57064;52.046;4.800;2023-02-07T10:33:31;70.97;;;23.10;;
69789;SDS011;57064;52.046;4.800;2023-02-07T10:36:04;70.32;;;26.27;;
69789;SDS011;57064;52.046;4.800;2023-02-07T10:41:38;98.72;;;23.48;;
69789;SDS011;57064;52.046;4.800;2023-02-07T10:44:16;56.78;;;21.83;;
69789;SDS011;57064;52.046;4.800;2023-02-07T10:46:44;57.25;;;22.23;;
69789;SDS011;57064;52.046;4.800;2023-02-07T10:49:33;56.67;;;21.52;;
69789;SDS011;57064;52.046;4.800;2023-02-07T10:54:54;65.78;;;22.33;;
69789;SDS011;57064;52.046;4.800;2023-02-07T10:57:26;47.70;;;20.88;;
69789;SDS011;57064;52.046;4.800;2023-02-07T11:00:01;60.25;;;21.48;;
69789;SDS011;57064;52.046;4.800;2023-02-07T11:05:05;54.78;;;23.15;;
69789;SDS011;57064;52.046;4.800;2023-02-07T11:07:58;50.53;;;21.67;;
69789;SDS011;57064;52.046;4.800;2023-02-07T11:10:27;53.33;;;21.00;;
69789;SDS011;57064;52.046;4.800;2023-02-07T11:12:58;52.53;;;20.65;;
69789;SDS011;57064;52.046;4.800;2023-02-07T11:15:29;60.55;;;21.83;;
69789;SDS011;57064;52.046;4.800;2023-02-07T11:18:00;45.35;;;20.20;;
69789;SDS011;57064;52.046;4.800;2023-02-07T11:20:34;49.38;;;19.75;;
69789;SDS011;57064;52.046;4.800;2023-02-07T11:23:10;47.88;;;19.75;;
69789;SDS011;57064;52.046;4.800;2023-02-07T11:25:41;46.83;;;21.83;;
69789;SDS011;57064;52.046;4.800;2023-02-07T11:28:21;50.75;;;19.67;;
69789;SDS011;57064;52.046;4.800;2023-02-07T11:30:52;49.35;;;20.35;;
69789;SDS011;57064;52.046;4.800;2023-02-07T11:33:29;56.83;;;21.90;;
69789;SDS011;57064;52.046;4.800;2023-02-07T11:38:53;62.03;;;23.45;;
69789;SDS011;57064;52.046;4.800;2023-02-07T11:41:24;56.03;;;23.02;;
69789;SDS011;57064;52.046;4.800;2023-02-07T11:43:53;53.25;;;22.92;;
69789;SDS011;57064;52.046;4.800;2023-02-07T11:46:21;52.15;;;22.65;;
69789;SDS011;57064;52.046;4.800;2023-02-07T11:49:02;50.75;;;20.88;;
69789;SDS011;57064;52.046;4.800;2023-02-07T11:51:41;47.28;;;21.35;;
69789;SDS011;57064;52.046;4.800;2023-02-07T11:54:08;45.75;;;19.63;;
69789;SDS011;57064;52.046;4.800;2023-02-07T11:56:45;43.72;;;18.40;;
69789;SDS011;57064;52.046;4.800;2023-02-07T11:59:17;42.17;;;20.10;;
69789;SDS011;57064;52.046;4.800;2023-02-07T12:01:49;43.40;;;19.77;;
69789;SDS011;57064;52.046;4.800;2023-02-07T12:04:23;48.33;;;18.75;;
69789;SDS011;57064;52.046;4.800;2023-02-07T12:07:02;42.95;;;19.00;;
69789;SDS011;57064;52.046;4.800;2023-02-07T12:12:06;46.63;;;19.02;;
69789;SDS011;57064;52.046;4.800;2023-02-07T12:14:57;40.30;;;18.50;;
69789;SDS011;57064;52.046;4.800;2023-02-07T12:17:38;44.28;;;18.42;;
69789;SDS011;57064;52.046;4.800;2023-02-07T12:26:00;41.90;;;18.52;;
69789;SDS011;57064;52.046;4.800;2023-02-07T12:28:38;42.60;;;18.30;;
69789;SDS011;57064;52.046;4.800;2023-02-07T12:34:22;43.92;;;19.73;;
69789;SDS011;57064;52.046;4.800;2023-02-07T12:36:52;41.55;;;18.10;;
69789;SDS011;57064;52.046;4.800;2023-02-07T12:39:26;47.67;;;19.55;;
69789;SDS011;57064;52.046;4.800;2023-02-07T12:42:25;49.38;;;19.15;;
69789;SDS011;57064;52.046;4.800;2023-02-07T12:45:08;41.88;;;19.23;;
69789;SDS011;57064;52.046;4.800;2023-02-07T12:59:10;48.17;;;21.25;;
69789;SDS011;57064;52.046;4.800;2023-02-07T13:09:42;59.10;;;22.98;;
69789;SDS011;57064;52.046;4.800;2023-02-07T13:20:32;50.95;;;22.60;;
69789;SDS011;57064;52.046;4.800;2023-02-07T13:23:18;49.33;;;21.70;;
69789;SDS011;57064;52.046;4.800;2023-02-07T13:25:51;51.83;;;22.50;;
69789;SDS011;57064;52.046;4.800;2023-02-07T13:29:12;48.47;;;22.67;;
69789;SDS011;57064;52.046;4.800;2023-02-07T13:31:44;43.53;;;20.17;;
69789;SDS011;57064;52.046;4.800;2023-02-07T13:34:14;47.80;;;19.90;;
69789;SDS011;57064;52.046;4.800;2023-02-07T13:36:46;42.08;;;21.20;;
69789;SDS011;57064;52.046;4.800;2023-02-07T13:39:18;45.28;;;22.20;;
69789;SDS011;57064;52.046;4.800;2023-02-07T13:50:00;43.78;;;19.40;;
69789;SDS011;57064;52.046;4.800;2023-02-07T13:53:03;41.17;;;18.25;;
69789;SDS011;57064;52.046;4.800;2023-02-07T13:55:40;39.97;;;17.80;;
69789;SDS011;57064;52.046;4.800;2023-02-07T14:01:24;40.88;;;17.98;;
69789;SDS011;57064;52.046;4.800;2023-02-07T14:06:31;36.08;;;16.13;;
69789;SDS011;57064;52.046;4.800;2023-02-07T14:11:46;27.75;;;13.93;;
69789;SDS011;57064;52.046;4.800;2023-02-07T14:16:54;27.17;;;12.10;;
69789;SDS011;57064;52.046;4.800;2023-02-07T14:23:02;25.63;;;12.13;;
69789;SDS011;57064;52.046;4.800;2023-02-07T14:25:23;23.92;;;12.82;;
69789;SDS011;57064;52.046;4.800;2023-02-07T14:38:31;22.83;;;12.13;;
69789;SDS011;57064;52.046;4.800;2023-02-07T14:41:08;22.50;;;11.30;;
69789;SDS011;57064;52.046;4.800;2023-02-07T14:43:53;23.13;;;11.27;;
69789;SDS011;57064;52.046;4.800;2023-02-07T14:46:39;20.13;;;10.98;;
69789;SDS011;57064;52.046;4.800;2023-02-07T14:51:43;21.60;;;10.25;;
69789;SDS011;57064;52.046;4.800;2023-02-07T14:56:58;20.95;;;10.45;;
69789;SDS011;57064;52.046;4.800;2023-02-07T14:59:30;23.00;;;10.93;;
69789;SDS011;57064;52.046;4.800;2023-02-07T15:05:21;21.48;;;10.88;;
69789;SDS011;57064;52.046;4.800;2023-02-07T15:07:53;21.55;;;10.18;;
69789;SDS011;57064;52.046;4.800;2023-02-07T15:10:34;19.85;;;10.55;;
69789;SDS011;57064;52.046;4.800;2023-02-07T15:13:01;22.73;;;10.27;;
69789;SDS011;57064;52.046;4.800;2023-02-07T15:15:42;19.23;;;9.00;;
69789;SDS011;57064;52.046;4.800;2023-02-07T15:18:10;17.25;;;8.52;;
69789;SDS011;57064;52.046;4.800;2023-02-07T15:20:38;18.02;;;8.75;;
69789;SDS011;57064;52.046;4.800;2023-02-07T15:23:05;16.80;;;8.25;;
69789;SDS011;57064;52.046;4.800;2023-02-07T15:25:36;15.98;;;7.60;;
69789;SDS011;57064;52.046;4.800;2023-02-07T15:30:54;14.75;;;7.30;;
69789;SDS011;57064;52.046;4.800;2023-02-07T15:33:24;18.10;;;7.97;;
69789;SDS011;57064;52.046;4.800;2023-02-07T15:35:53;17.58;;;8.00;;
69789;SDS011;57064;52.046;4.800;2023-02-07T15:38:20;16.38;;;7.72;;
69789;SDS011;57064;52.046;4.800;2023-02-07T15:40:48;16.02;;;7.60;;
69789;SDS011;57064;52.046;4.800;2023-02-07T15:43:31;15.23;;;8.43;;
69789;SDS011;57064;52.046;4.800;2023-02-07T15:46:03;13.02;;;7.35;;
69789;SDS011;57064;52.046;4.800;2023-02-07T15:48:30;11.50;;;6.43;;
69789;SDS011;57064;52.046;4.800;2023-02-07T15:50:59;14.40;;;7.10;;
69789;SDS011;57064;52.046;4.800;2023-02-07T15:53:28;15.63;;;7.55;;
69789;SDS011;57064;52.046;4.800;2023-02-07T15:55:54;12.43;;;6.70;;
69789;SDS011;57064;52.046;4.800;2023-02-07T15:58:22;20.52;;;10.23;;
69789;SDS011;57064;52.046;4.800;2023-02-07T16:00:51;30.52;;;16.92;;
69789;SDS011;57064;52.046;4.800;2023-02-07T16:03:19;33.72;;;18.67;;
69789;SDS011;57064;52.046;4.800;2023-02-07T16:05:47;36.30;;;21.33;;
69789;SDS011;57064;52.046;4.800;2023-02-07T16:08:32;24.13;;;14.82;;
69789;SDS011;57064;52.046;4.800;2023-02-07T16:16:20;87.55;;;56.88;;
69789;SDS011;57064;52.046;4.800;2023-02-07T16:18:51;86.90;;;59.55;;
69789;SDS011;57064;52.046;4.800;2023-02-07T16:21:41;99.95;;;65.07;;
69789;SDS011;57064;52.046;4.800;2023-02-07T16:24:12;116.50;;;71.13;;
69789;SDS011;57064;52.046;4.800;2023-02-07T16:26:46;62.15;;;38.30;;
69789;SDS011;57064;52.046;4.800;2023-02-07T16:29:17;29.33;;;15.95;;
69789;SDS011;57064;52.046;4.800;2023-02-07T16:31:45;23.65;;;12.32;;
69789;SDS011;57064;52.046;4.800;2023-02-07T16:34:16;29.65;;;16.63;;
69789;SDS011;57064;52.046;4.800;2023-02-07T16:36:43;67.00;;;44.92;;
69789;SDS011;57064;52.046;4.800;2023-02-07T16:39:13;77.97;;;49.42;;
69789;SDS011;57064;52.046;4.800;2023-02-07T16:41:39;91.00;;;57.83;;
69789;SDS011;57064;52.046;4.800;2023-02-07T16:44:22;113.90;;;66.95;;
69789;SDS011;57064;52.046;4.800;2023-02-07T16:46:50;97.03;;;59.63;;
69789;SDS011;57064;52.046;4.800;2023-02-07T16:49:17;65.35;;;40.05;;
69789;SDS011;57064;52.046;4.800;2023-02-07T16:51:46;58.10;;;34.22;;
69789;SDS011;57064;52.046;4.800;2023-02-07T16:54:13;54.05;;;35.42;;
69789;SDS011;57064;52.046;4.800;2023-02-07T16:56:39;66.13;;;40.05;;
69789;SDS011;57064;52.046;4.800;2023-02-07T16:59:10;63.85;;;35.60;;
69789;SDS011;57064;52.046;4.800;2023-02-07T17:01:45;62.55;;;33.53;;
69789;SDS011;57064;52.046;4.800;2023-02-07T17:04:12;49.83;;;27.77;;
69789;SDS011;57064;52.046;4.800;2023-02-07T17:06:39;51.67;;;26.92;;
69789;SDS011;57064;52.046;4.800;2023-02-07T17:09:13;46.83;;;23.23;;
69789;SDS011;57064;52.046;4.800;2023-02-07T17:11:42;43.17;;;21.15;;